sensor_id;sensor_type;location;lat;lon;timestamp;pressure;altitude;pressure_sealevel;temperature
74060;BMP280;62414;53.436;8.828;2022-10-31T00:00:48;101624.50;;;13.93
74060;BMP280;62414;53.436;8.828;2022-10-31T00:03:14;101618.53;;;13.85
74060;BMP280;62414;53.436;8.828;2022-10-31T00:05:41;101622.97;;;13.79
74060;BMP280;62414;53.436;8.828;2022-10-31T00:08:06;101628.53;;;13.76
74060;BMP280;62414;53.436;8.828;2022-10-31T00:10:32;101636.88;;;13.69
74060;BMP280;62414;53.436;8.828;2022-10-31T00:12:57;101639.34;;;13.63
74060;BMP280;62414;53.436;8.828;2022-10-31T00:15:24;101640.19;;;13.60
74060;BMP280;62414;53.436;8.828;2022-10-31T00:17:49;101646.94;;;13.55
74060;BMP280;62414;53.436;8.828;2022-10-31T00:20:15;101651.75;;;13.51
74060;BMP280;62414;53.436;8.828;2022-10-31T00:22:40;101649.41;;;13.50
74060;BMP280;62414;53.436;8.828;2022-10-31T00:25:06;101654.84;;;13.50
74060;BMP280;62414;53.436;8.828;2022-10-31T00:27:31;101658.09;;;13.45
74060;BMP280;62414;53.436;8.828;2022-10-31T00:29:57;101651.44;;;13.46
74060;BMP280;62414;53.436;8.828;2022-10-31T00:32:24;101661.69;;;13.42
74060;BMP280;62414;53.436;8.828;2022-10-31T00:34:50;101662.97;;;13.37
74060;BMP280;62414;53.436;8.828;2022-10-31T00:37:15;101668.00;;;13.39
74060;BMP280;62414;53.436;8.828;2022-10-31T00:39:43;101664.03;;;13.40
74060;BMP280;62414;53.436;8.828;2022-10-31T00:42:08;101673.06;;;13.36
74060;BMP280;62414;53.436;8.828;2022-10-31T00:44:34;101678.50;;;13.36
74060;BMP280;62414;53.436;8.828;2022-10-31T00:46:59;101674.50;;;13.41
74060;BMP280;62414;53.436;8.828;2022-10-31T00:49:26;101672.31;;;13.36
74060;BMP280;62414;53.436;8.828;2022-10-31T00:51:51;101683.00;;;13.27
74060;BMP280;62414;53.436;8.828;2022-10-31T00:54:17;101695.44;;;13.28
74060;BMP280;62414;53.436;8.828;2022-10-31T00:56:43;101688.91;;;13.25
74060;BMP280;62414;53.436;8.828;2022-10-31T00:59:08;101698.31;;;13.21
74060;BMP280;62414;53.436;8.828;2022-10-31T01:01:34;101694.41;;;13.22
74060;BMP280;62414;53.436;8.828;2022-10-31T01:04:00;101691.28;;;13.23
74060;BMP280;62414;53.436;8.828;2022-10-31T01:06:26;101699.78;;;13.25
74060;BMP280;62414;53.436;8.828;2022-10-31T01:08:55;101707.94;;;13.25
74060;BMP280;62414;53.436;8.828;2022-10-31T01:11:22;101706.41;;;13.24
74060;BMP280;62414;53.436;8.828;2022-10-31T01:13:51;101702.56;;;13.22
74060;BMP280;62414;53.436;8.828;2022-10-31T01:16:18;101706.16;;;13.19
74060;BMP280;62414;53.436;8.828;2022-10-31T01:18:44;101698.50;;;13.14
74060;BMP280;62414;53.436;8.828;2022-10-31T01:21:11;101703.19;;;13.13
74060;BMP280;62414;53.436;8.828;2022-10-31T01:23:38;101708.63;;;13.13
74060;BMP280;62414;53.436;8.828;2022-10-31T01:26:07;101714.47;;;13.12
74060;BMP280;62414;53.436;8.828;2022-10-31T01:28:33;101713.38;;;13.09
74060;BMP280;62414;53.436;8.828;2022-10-31T01:31:03;101720.69;;;13.12
74060;BMP280;62414;53.436;8.828;2022-10-31T01:33:29;101714.91;;;13.10
74060;BMP280;62414;53.436;8.828;2022-10-31T01:35:55;101723.88;;;13.07
74060;BMP280;62414;53.436;8.828;2022-10-31T01:38:20;101726.59;;;13.07
74060;BMP280;62414;53.436;8.828;2022-10-31T01:40:47;101710.91;;;13.15
74060;BMP280;62414;53.436;8.828;2022-10-31T01:43:13;101717.97;;;13.12
74060;BMP280;62414;53.436;8.828;2022-10-31T01:45:39;101716.88;;;13.10
74060;BMP280;62414;53.436;8.828;2022-10-31T01:48:09;101722.63;;;13.12
74060;BMP280;62414;53.436;8.828;2022-10-31T01:50:38;101719.22;;;13.07
74060;BMP280;62414;53.436;8.828;2022-10-31T01:53:05;101719.22;;;13.07
74060;BMP280;62414;53.436;8.828;2022-10-31T01:55:34;101715.72;;;13.07
74060;BMP280;62414;53.436;8.828;2022-10-31T01:58:06;101708.09;;;13.02
74060;BMP280;62414;53.436;8.828;2022-10-31T02:00:32;101706.56;;;13.01
74060;BMP280;62414;53.436;8.828;2022-10-31T02:02:58;101714.81;;;12.97
74060;BMP280;62414;53.436;8.828;2022-10-31T02:05:26;101715.22;;;12.96
74060;BMP280;62414;53.436;8.828;2022-10-31T02:07:57;101713.34;;;12.93
74060;BMP280;62414;53.436;8.828;2022-10-31T02:10:29;101715.66;;;12.94
74060;BMP280;62414;53.436;8.828;2022-10-31T02:12:57;101716.94;;;12.90
74060;BMP280;62414;53.436;8.828;2022-10-31T02:15:25;101722.00;;;12.88
74060;BMP280;62414;53.436;8.828;2022-10-31T02:17:51;101728.19;;;12.88
74060;BMP280;62414;53.436;8.828;2022-10-31T02:20:19;101722.00;;;12.88
74060;BMP280;62414;53.436;8.828;2022-10-31T02:23:19;101734.41;;;12.89
74060;BMP280;62414;53.436;8.828;2022-10-31T02:26:17;101729.47;;;12.84
74060;BMP280;62414;53.436;8.828;2022-10-31T02:29:05;101736.91;;;12.80
74060;BMP280;62414;53.436;8.828;2022-10-31T02:31:42;101741.63;;;12.79
74060;BMP280;62414;53.436;8.828;2022-10-31T02:34:16;101738.19;;;12.75
74060;BMP280;62414;53.436;8.828;2022-10-31T02:36:52;101733.94;;;12.74
74060;BMP280;62414;53.436;8.828;2022-10-31T02:39:23;101733.25;;;12.70
74060;BMP280;62414;53.436;8.828;2022-10-31T02:41:52;101741.06;;;12.68
74060;BMP280;62414;53.436;8.828;2022-10-31T02:44:26;101744.22;;;12.66
74060;BMP280;62414;53.436;8.828;2022-10-31T02:46:59;101741.91;;;12.65
74060;BMP280;62414;53.436;8.828;2022-10-31T02:49:32;101741.19;;;12.61
74060;BMP280;62414;53.436;8.828;2022-10-31T02:51:59;101750.22;;;12.58
74060;BMP280;62414;53.436;8.828;2022-10-31T02:54:25;101747.97;;;12.53
74060;BMP280;62414;53.436;8.828;2022-10-31T02:56:57;101747.72;;;12.47
74060;BMP280;62414;53.436;8.828;2022-10-31T02:59:25;101744.72;;;12.41
74060;BMP280;62414;53.436;8.828;2022-10-31T03:02:07;101754.59;;;12.32
74060;BMP280;62414;53.436;8.828;2022-10-31T03:04:45;101747.81;;;12.24
74060;BMP280;62414;53.436;8.828;2022-10-31T03:07:21;101752.13;;;12.18
74060;BMP280;62414;53.436;8.828;2022-10-31T03:09:54;101749.91;;;12.12
74060;BMP280;62414;53.436;8.828;2022-10-31T03:12:26;101763.97;;;12.07
74060;BMP280;62414;53.436;8.828;2022-10-31T03:14:58;101764.13;;;12.00
74060;BMP280;62414;53.436;8.828;2022-10-31T03:17:33;101760.41;;;11.91
74060;BMP280;62414;53.436;8.828;2022-10-31T03:20:03;101766.31;;;11.85
74060;BMP280;62414;53.436;8.828;2022-10-31T03:22:31;101769.41;;;11.84
74060;BMP280;62414;53.436;8.828;2022-10-31T03:24:58;101763.19;;;11.87
74060;BMP280;62414;53.436;8.828;2022-10-31T03:27:26;101767.63;;;11.97
74060;BMP280;62414;53.436;8.828;2022-10-31T03:29:56;101771.34;;;12.07
74060;BMP280;62414;53.436;8.828;2022-10-31T03:32:25;101766.19;;;12.12
74060;BMP280;62414;53.436;8.828;2022-10-31T03:34:56;101777.44;;;12.14
74060;BMP280;62414;53.436;8.828;2022-10-31T03:37:25;101773.84;;;12.18
74060;BMP280;62414;53.436;8.828;2022-10-31T03:39:53;101775.81;;;12.17
74060;BMP280;62414;53.436;8.828;2022-10-31T03:42:27;101776.94;;;12.20
74060;BMP280;62414;53.436;8.828;2022-10-31T03:44:59;101774.50;;;12.25
74060;BMP280;62414;53.436;8.828;2022-10-31T03:47:27;101782.59;;;12.29
74060;BMP280;62414;53.436;8.828;2022-10-31T03:49:54;101777.06;;;12.32
74060;BMP280;62414;53.436;8.828;2022-10-31T03:52:24;101781.41;;;12.30
74060;BMP280;62414;53.436;8.828;2022-10-31T03:54:57;101785.63;;;12.31
74060;BMP280;62414;53.436;8.828;2022-10-31T03:57:34;101784.06;;;12.33
74060;BMP280;62414;53.436;8.828;2022-10-31T04:00:05;101789.13;;;12.31
74060;BMP280;62414;53.436;8.828;2022-10-31T04:02:34;101789.13;;;12.31
74060;BMP280;62414;53.436;8.828;2022-10-31T04:05:03;101788.72;;;12.33
74060;BMP280;62414;53.436;8.828;2022-10-31T04:07:32;101797.22;;;12.35
74060;BMP280;62414;53.436;8.828;2022-10-31T04:10:00;101800.69;;;12.35
74060;BMP280;62414;53.436;8.828;2022-10-31T04:12:29;101799.16;;;12.34
74060;BMP280;62414;53.436;8.828;2022-10-31T04:15:17;101798.00;;;12.35
74060;BMP280;62414;53.436;8.828;2022-10-31T04:17:45;101798.00;;;12.35
74060;BMP280;62414;53.436;8.828;2022-10-31T04:20:17;101799.09;;;12.38
74060;BMP280;62414;53.436;8.828;2022-10-31T04:22:42;101785.88;;;12.40
74060;BMP280;62414;53.436;8.828;2022-10-31T04:25:08;101794.78;;;12.40
74060;BMP280;62414;53.436;8.828;2022-10-31T04:27:37;101800.16;;;12.44
74060;BMP280;62414;53.436;8.828;2022-10-31T04:30:03;101792.34;;;12.46
74060;BMP280;62414;53.436;8.828;2022-10-31T04:32:31;101791.53;;;12.49
74060;BMP280;62414;53.436;8.828;2022-10-31T04:34:57;101793.09;;;12.46
74060;BMP280;62414;53.436;8.828;2022-10-31T04:37:24;101791.88;;;12.51
74060;BMP280;62414;53.436;8.828;2022-10-31T04:39:49;101800.00;;;12.51
74060;BMP280;62414;53.436;8.828;2022-10-31T04:42:33;101802.81;;;12.48
74060;BMP280;62414;53.436;8.828;2022-10-31T04:45:02;101792.97;;;12.54
74060;BMP280;62414;53.436;8.828;2022-10-31T04:47:30;101796.84;;;12.56
74060;BMP280;62414;53.436;8.828;2022-10-31T04:49:56;101794.78;;;12.60
74060;BMP280;62414;53.436;8.828;2022-10-31T04:52:23;101795.16;;;12.62
74060;BMP280;62414;53.436;8.828;2022-10-31T04:54:50;101791.66;;;12.62
74060;BMP280;62414;53.436;8.828;2022-10-31T04:57:41;101789.63;;;12.66
74060;BMP280;62414;53.436;8.828;2022-10-31T05:00:08;101795.84;;;12.66
74060;BMP280;62414;53.436;8.828;2022-10-31T05:02:33;101793.97;;;12.63
74060;BMP280;62414;53.436;8.828;2022-10-31T05:04:59;101794.00;;;12.60
74060;BMP280;62414;53.436;8.828;2022-10-31T05:07:27;101798.06;;;12.52
74060;BMP280;62414;53.436;8.828;2022-10-31T05:09:53;101804.38;;;12.45
74060;BMP280;62414;53.436;8.828;2022-10-31T05:12:19;101805.91;;;12.46
74060;BMP280;62414;53.436;8.828;2022-10-31T05:15:05;101802.03;;;12.47
74060;BMP280;62414;53.436;8.828;2022-10-31T05:18:09;101803.97;;;12.46
74060;BMP280;62414;53.436;8.828;2022-10-31T05:21:13;101803.19;;;12.46
74060;BMP280;62414;53.436;8.828;2022-10-31T05:23:46;101801.66;;;12.45
74060;BMP280;62414;53.436;8.828;2022-10-31T05:26:11;101793.47;;;12.49
74060;BMP280;62414;53.436;8.828;2022-10-31T05:28:37;101788.09;;;12.45
74060;BMP280;62414;53.436;8.828;2022-10-31T05:31:03;101795.91;;;12.43
74060;BMP280;62414;53.436;8.828;2022-10-31T05:33:29;101796.38;;;12.38
74060;BMP280;62414;53.436;8.828;2022-10-31T05:36:13;101801.47;;;12.36
74060;BMP280;62414;53.436;8.828;2022-10-31T05:38:52;101799.44;;;12.40
74060;BMP280;62414;53.436;8.828;2022-10-31T05:41:24;101804.88;;;12.40
74060;BMP280;62414;53.436;8.828;2022-10-31T05:43:50;101795.16;;;12.42
74060;BMP280;62414;53.436;8.828;2022-10-31T05:46:19;101792.28;;;12.50
74060;BMP280;62414;53.436;8.828;2022-10-31T05:49:03;101794.50;;;12.55
74060;BMP280;62414;53.436;8.828;2022-10-31T05:51:47;101800.00;;;12.51
74060;BMP280;62414;53.436;8.828;2022-10-31T05:54:14;101802.88;;;12.44
74060;BMP280;62414;53.436;8.828;2022-10-31T05:56:40;101803.34;;;12.39
74060;BMP280;62414;53.436;8.828;2022-10-31T05:59:05;101807.66;;;12.36
74060;BMP280;62414;53.436;8.828;2022-10-31T06:01:32;101807.16;;;12.41
74060;BMP280;62414;53.436;8.828;2022-10-31T06:04:03;101806.81;;;12.39
74060;BMP280;62414;53.436;8.828;2022-10-31T06:06:29;101816.13;;;12.42
74060;BMP280;62414;53.436;8.828;2022-10-31T06:08:54;101808.00;;;12.38
74060;BMP280;62414;53.436;8.828;2022-10-31T06:11:23;101818.88;;;12.38
74060;BMP280;62414;53.436;8.828;2022-10-31T06:14:01;101824.25;;;12.42
74060;BMP280;62414;53.436;8.828;2022-10-31T06:16:56;101827.78;;;12.39
74060;BMP280;62414;53.436;8.828;2022-10-31T06:19:40;101830.50;;;12.39
74060;BMP280;62414;53.436;8.828;2022-10-31T06:22:07;101832.53;;;12.35
74060;BMP280;62414;53.436;8.828;2022-10-31T06:24:33;101832.63;;;12.28
74060;BMP280;62414;53.436;8.828;2022-10-31T06:27:25;101827.50;;;12.33
74060;BMP280;62414;53.436;8.828;2022-10-31T06:29:52;101838.38;;;12.33
74060;BMP280;62414;53.436;8.828;2022-10-31T06:32:26;101840.72;;;12.31
74060;BMP280;62414;53.436;8.828;2022-10-31T06:34:52;101844.19;;;12.32
74060;BMP280;62414;53.436;8.828;2022-10-31T06:37:17;101850.00;;;12.34
74060;BMP280;62414;53.436;8.828;2022-10-31T06:39:45;101846.59;;;12.30
74060;BMP280;62414;53.436;8.828;2022-10-31T06:42:15;101853.91;;;12.33
74060;BMP280;62414;53.436;8.828;2022-10-31T06:44:43;101851.25;;;12.29
74060;BMP280;62414;53.436;8.828;2022-10-31T06:47:27;101855.50;;;12.30
74060;BMP280;62414;53.436;8.828;2022-10-31T06:49:55;101853.25;;;12.25
74060;BMP280;62414;53.436;8.828;2022-10-31T06:52:22;101852.53;;;12.21
74060;BMP280;62414;53.436;8.828;2022-10-31T06:54:50;101860.28;;;12.23
74060;BMP280;62414;53.436;8.828;2022-10-31T06:57:15;101865.69;;;12.23
74060;BMP280;62414;53.436;8.828;2022-10-31T06:59:42;101866.13;;;12.21
74060;BMP280;62414;53.436;8.828;2022-10-31T07:02:09;101870.72;;;12.24
74060;BMP280;62414;53.436;8.828;2022-10-31T07:04:35;101866.81;;;12.25
74060;BMP280;62414;53.436;8.828;2022-10-31T07:07:01;101863.78;;;12.23
74060;BMP280;62414;53.436;8.828;2022-10-31T07:09:26;101858.22;;;12.30
74060;BMP280;62414;53.436;8.828;2022-10-31T07:11:54;101861.38;;;12.25
74060;BMP280;62414;53.436;8.828;2022-10-31T07:14:19;101861.06;;;12.23
74060;BMP280;62414;53.436;8.828;2022-10-31T07:16:49;101865.22;;;12.28
74060;BMP280;62414;53.436;8.828;2022-10-31T07:19:15;101865.22;;;12.28
74060;BMP280;62414;53.436;8.828;2022-10-31T07:21:41;101865.22;;;12.28
74060;BMP280;62414;53.436;8.828;2022-10-31T07:24:08;101861.75;;;12.27
74060;BMP280;62414;53.436;8.828;2022-10-31T07:26:39;101860.16;;;12.30
74060;BMP280;62414;53.436;8.828;2022-10-31T07:29:04;101867.75;;;12.38
74060;BMP280;62414;53.436;8.828;2022-10-31T07:31:30;101866.13;;;12.44
74060;BMP280;62414;53.436;8.828;2022-10-31T07:34:03;101869.25;;;12.43
74060;BMP280;62414;53.436;8.828;2022-10-31T07:36:34;101863.72;;;12.46
74060;BMP280;62414;53.436;8.828;2022-10-31T07:39:03;101866.75;;;12.52
74060;BMP280;62414;53.436;8.828;2022-10-31T07:41:29;101868.28;;;12.53
74060;BMP280;62414;53.436;8.828;2022-10-31T07:43:55;101868.88;;;12.61
74060;BMP280;62414;53.436;8.828;2022-10-31T07:46:39;101870.44;;;12.62
74060;BMP280;62414;53.436;8.828;2022-10-31T07:49:24;101872.41;;;12.61
74060;BMP280;62414;53.436;8.828;2022-10-31T07:51:49;101865.63;;;12.69
74060;BMP280;62414;53.436;8.828;2022-10-31T07:54:33;101878.34;;;12.76
74060;BMP280;62414;53.436;8.828;2022-10-31T07:56:59;101882.19;;;12.75
74060;BMP280;62414;53.436;8.828;2022-10-31T07:59:24;101878.72;;;12.74
74060;BMP280;62414;53.436;8.828;2022-10-31T08:01:50;101873.25;;;12.78
74060;BMP280;62414;53.436;8.828;2022-10-31T08:04:31;101877.78;;;12.85
74060;BMP280;62414;53.436;8.828;2022-10-31T08:07:16;101883.34;;;12.78
74060;BMP280;62414;53.436;8.828;2022-10-31T08:09:48;101881.31;;;12.82
74060;BMP280;62414;53.436;8.828;2022-10-31T08:12:23;101885.72;;;12.75
74060;BMP280;62414;53.436;8.828;2022-10-31T08:14:49;101882.50;;;12.81
74060;BMP280;62414;53.436;8.828;2022-10-31T08:17:17;101880.13;;;12.83
74060;BMP280;62414;53.436;8.828;2022-10-31T08:19:53;101874.47;;;12.93
74060;BMP280;62414;53.436;8.828;2022-10-31T08:22:23;101869.13;;;12.90
74060;BMP280;62414;53.436;8.828;2022-10-31T08:24:48;101863.41;;;13.04
74060;BMP280;62414;53.436;8.828;2022-10-31T08:27:14;101859.06;;;13.06
74060;BMP280;62414;53.436;8.828;2022-10-31T08:29:39;101858.63;;;13.08
74060;BMP280;62414;53.436;8.828;2022-10-31T08:32:05;101861.56;;;13.17
74060;BMP280;62414;53.436;8.828;2022-10-31T08:34:58;101861.84;;;13.23
74060;BMP280;62414;53.436;8.828;2022-10-31T08:38:02;101874.13;;;13.11
74060;BMP280;62414;53.436;8.828;2022-10-31T08:40:30;101875.75;;;13.09
74060;BMP280;62414;53.436;8.828;2022-10-31T08:42:57;101862.75;;;13.16
74060;BMP280;62414;53.436;8.828;2022-10-31T08:45:23;101863.78;;;13.22
74060;BMP280;62414;53.436;8.828;2022-10-31T08:47:50;101861.00;;;13.06
74060;BMP280;62414;53.436;8.828;2022-10-31T08:50:17;101859.53;;;13.21
74060;BMP280;62414;53.436;8.828;2022-10-31T08:52:45;101863.44;;;13.20
74060;BMP280;62414;53.436;8.828;2022-10-31T08:55:11;101869.13;;;13.26
74060;BMP280;62414;53.436;8.828;2022-10-31T08:57:42;101867.75;;;13.38
74060;BMP280;62414;53.436;8.828;2022-10-31T09:00:10;101864.75;;;13.48
74060;BMP280;62414;53.436;8.828;2022-10-31T09:02:55;101872.00;;;13.55
74060;BMP280;62414;53.436;8.828;2022-10-31T09:05:22;101879.00;;;13.56
74060;BMP280;62414;53.436;8.828;2022-10-31T09:07:48;101881.59;;;13.59
74060;BMP280;62414;53.436;8.828;2022-10-31T09:10:14;101887.81;;;13.60
74060;BMP280;62414;53.436;8.828;2022-10-31T09:12:40;101880.81;;;13.59
74060;BMP280;62414;53.436;8.828;2022-10-31T09:15:24;101875.09;;;13.57
74060;BMP280;62414;53.436;8.828;2022-10-31T09:18:04;101874.38;;;13.69
74060;BMP280;62414;53.436;8.828;2022-10-31T09:20:43;101874.19;;;13.60
74060;BMP280;62414;53.436;8.828;2022-10-31T09:23:12;101870.72;;;13.59
74060;BMP280;62414;53.436;8.828;2022-10-31T09:25:38;101870.28;;;13.77
74060;BMP280;62414;53.436;8.828;2022-10-31T09:28:24;101880.00;;;13.62
74060;BMP280;62414;53.436;8.828;2022-10-31T09:30:52;101875.16;;;13.70
74060;BMP280;62414;53.436;8.828;2022-10-31T09:33:38;101868.38;;;13.94
74060;BMP280;62414;53.436;8.828;2022-10-31T09:36:23;101875.25;;;13.82
74060;BMP280;62414;53.436;8.828;2022-10-31T09:38:50;101879.31;;;14.07
74060;BMP280;62414;53.436;8.828;2022-10-31T09:41:21;101890.34;;;14.16
74060;BMP280;62414;53.436;8.828;2022-10-31T09:43:58;101885.13;;;14.38
74060;BMP280;62414;53.436;8.828;2022-10-31T09:46:34;101896.34;;;14.40
74060;BMP280;62414;53.436;8.828;2022-10-31T09:49:18;101890.00;;;14.59
74060;BMP280;62414;53.436;8.828;2022-10-31T09:51:53;101886.47;;;14.75
74060;BMP280;62414;53.436;8.828;2022-10-31T09:54:34;101896.81;;;14.93
74060;BMP280;62414;53.436;8.828;2022-10-31T09:57:01;101897.75;;;15.02
74060;BMP280;62414;53.436;8.828;2022-10-31T09:59:30;101902.44;;;15.02
74060;BMP280;62414;53.436;8.828;2022-10-31T10:01:58;101893.72;;;15.19
74060;BMP280;62414;53.436;8.828;2022-10-31T10:04:32;101899.09;;;15.36
74060;BMP280;62414;53.436;8.828;2022-10-31T10:07:14;101901.03;;;15.23
74060;BMP280;62414;53.436;8.828;2022-10-31T10:09:42;101893.53;;;15.27
74060;BMP280;62414;53.436;8.828;2022-10-31T10:12:33;101898.19;;;15.13
74060;BMP280;62414;53.436;8.828;2022-10-31T10:15:19;101897.00;;;15.27
74060;BMP280;62414;53.436;8.828;2022-10-31T10:17:52;101890.22;;;15.06
74060;BMP280;62414;53.436;8.828;2022-10-31T10:20:31;101905.63;;;15.26
74060;BMP280;62414;53.436;8.828;2022-10-31T10:23:21;101890.44;;;15.25
74060;BMP280;62414;53.436;8.828;2022-10-31T10:25:55;101891.31;;;15.34
74060;BMP280;62414;53.436;8.828;2022-10-31T10:28:28;101880.97;;;15.42
74060;BMP280;62414;53.436;8.828;2022-10-31T10:30:59;101879.97;;;15.48
74060;BMP280;62414;53.436;8.828;2022-10-31T10:33:30;101874.72;;;15.54
74060;BMP280;62414;53.436;8.828;2022-10-31T10:35:59;101879.00;;;15.30
74060;BMP280;62414;53.436;8.828;2022-10-31T10:38:30;101870.16;;;15.51
74060;BMP280;62414;53.436;8.828;2022-10-31T10:41:01;101880.63;;;15.52
74060;BMP280;62414;53.436;8.828;2022-10-31T10:43:31;101892.75;;;15.64
74060;BMP280;62414;53.436;8.828;2022-10-31T10:46:05;101888.50;;;15.38
74060;BMP280;62414;53.436;8.828;2022-10-31T10:48:42;101885.31;;;15.52
74060;BMP280;62414;53.436;8.828;2022-10-31T10:51:20;101882.38;;;15.59
74060;BMP280;62414;53.436;8.828;2022-10-31T10:53:59;101889.66;;;15.49
74060;BMP280;62414;53.436;8.828;2022-10-31T10:56:36;101898.88;;;15.43
74060;BMP280;62414;53.436;8.828;2022-10-31T10:59:09;101898.63;;;15.50
74060;BMP280;62414;53.436;8.828;2022-10-31T11:01:36;101896.66;;;15.63
74060;BMP280;62414;53.436;8.828;2022-10-31T11:04:05;101892.75;;;15.64
74060;BMP280;62414;53.436;8.828;2022-10-31T11:06:33;101887.13;;;15.68
74060;BMP280;62414;53.436;8.828;2022-10-31T11:09:08;101877.44;;;15.54
74060;BMP280;62414;53.436;8.828;2022-10-31T11:11:34;101881.59;;;15.59
74060;BMP280;62414;53.436;8.828;2022-10-31T11:14:02;101866.50;;;15.67
74060;BMP280;62414;53.436;8.828;2022-10-31T11:16:31;101868.16;;;15.64
74060;BMP280;62414;53.436;8.828;2022-10-31T11:19:14;101868.72;;;15.59
74060;BMP280;62414;53.436;8.828;2022-10-31T11:21:41;101858.75;;;15.78
74060;BMP280;62414;53.436;8.828;2022-10-31T11:24:14;101868.47;;;15.79
74060;BMP280;62414;53.436;8.828;2022-10-31T11:26:42;101865.09;;;15.62
74060;BMP280;62414;53.436;8.828;2022-10-31T11:29:13;101862.72;;;15.64
74060;BMP280;62414;53.436;8.828;2022-10-31T11:31:39;101862.28;;;15.53
74060;BMP280;62414;53.436;8.828;2022-10-31T11:34:12;101864.25;;;15.40
74060;BMP280;62414;53.436;8.828;2022-10-31T11:36:42;101853.47;;;15.24
74060;BMP280;62414;53.436;8.828;2022-10-31T11:39:16;101852.91;;;15.29
74060;BMP280;62414;53.436;8.828;2022-10-31T11:41:43;101855.63;;;15.41
74060;BMP280;62414;53.436;8.828;2022-10-31T11:44:13;101862.81;;;15.35
74060;BMP280;62414;53.436;8.828;2022-10-31T11:46:40;101855.06;;;15.34
74060;BMP280;62414;53.436;8.828;2022-10-31T11:49:14;101856.19;;;15.36
74060;BMP280;62414;53.436;8.828;2022-10-31T11:51:40;101853.78;;;15.13
74060;BMP280;62414;53.436;8.828;2022-10-31T11:54:14;101845.38;;;15.33
74060;BMP280;62414;53.436;8.828;2022-10-31T11:56:42;101850.53;;;15.31
74060;BMP280;62414;53.436;8.828;2022-10-31T11:59:18;101849.19;;;15.23
74060;BMP280;62414;53.436;8.828;2022-10-31T12:01:47;101849.97;;;15.23
74060;BMP280;62414;53.436;8.828;2022-10-31T12:04:13;101847.88;;;15.02
74060;BMP280;62414;53.436;8.828;2022-10-31T12:06:40;101844.06;;;14.99
74060;BMP280;62414;53.436;8.828;2022-10-31T12:09:17;101841.88;;;14.94
74060;BMP280;62414;53.436;8.828;2022-10-31T12:11:54;101837.09;;;14.85
74060;BMP280;62414;53.436;8.828;2022-10-31T12:14:30;101835.34;;;14.79
74060;BMP280;62414;53.436;8.828;2022-10-31T12:17:03;101832.13;;;14.68
74060;BMP280;62414;53.436;8.828;2022-10-31T12:19:36;101833.63;;;14.69
74060;BMP280;62414;53.436;8.828;2022-10-31T12:22:13;101830.06;;;14.72
74060;BMP280;62414;53.436;8.828;2022-10-31T12:25:03;101823.81;;;14.58
74060;BMP280;62414;53.436;8.828;2022-10-31T12:27:49;101818.38;;;14.58
74060;BMP280;62414;53.436;8.828;2022-10-31T12:30:19;101820.66;;;14.47
74060;BMP280;62414;53.436;8.828;2022-10-31T12:33:01;101817.06;;;14.63
74060;BMP280;62414;53.436;8.828;2022-10-31T12:35:39;101816.22;;;14.66
74060;BMP280;62414;53.436;8.828;2022-10-31T12:38:18;101812.94;;;14.71
74060;BMP280;62414;53.436;8.828;2022-10-31T12:41:02;101817.81;;;14.64
74060;BMP280;62414;53.436;8.828;2022-10-31T12:43:42;101816.06;;;14.44
74060;BMP280;62414;53.436;8.828;2022-10-31T12:46:16;101813.47;;;14.53
74060;BMP280;62414;53.436;8.828;2022-10-31T12:48:55;101805.84;;;14.61
74060;BMP280;62414;53.436;8.828;2022-10-31T12:51:29;101806.59;;;14.49
74060;BMP280;62414;53.436;8.828;2022-10-31T12:54:11;101804.53;;;14.53
74060;BMP280;62414;53.436;8.828;2022-10-31T12:56:45;101789.28;;;14.55
74060;BMP280;62414;53.436;8.828;2022-10-31T12:59:21;101784.28;;;14.67
74060;BMP280;62414;53.436;8.828;2022-10-31T13:01:51;101786.56;;;14.81
74060;BMP280;62414;53.436;8.828;2022-10-31T13:04:28;101784.06;;;15.12
74060;BMP280;62414;53.436;8.828;2022-10-31T13:07:00;101777.63;;;15.18
74060;BMP280;62414;53.436;8.828;2022-10-31T13:09:31;101772.56;;;15.30
74060;BMP280;62414;53.436;8.828;2022-10-31T13:12:02;101770.19;;;15.19
74060;BMP280;62414;53.436;8.828;2022-10-31T13:14:32;101765.19;;;15.05
74060;BMP280;62414;53.436;8.828;2022-10-31T13:17:00;101752.31;;;15.18
74060;BMP280;62414;53.436;8.828;2022-10-31T13:19:30;101737.66;;;15.37
74060;BMP280;62414;53.436;8.828;2022-10-31T13:22:00;101740.69;;;15.74
74060;BMP280;62414;53.436;8.828;2022-10-31T13:24:33;101743.94;;;16.03
74060;BMP280;62414;53.436;8.828;2022-10-31T13:27:02;101740.66;;;16.49
74060;BMP280;62414;53.436;8.828;2022-10-31T13:29:33;101742.59;;;16.70
74060;BMP280;62414;53.436;8.828;2022-10-31T13:31:59;101744.72;;;16.75
74060;BMP280;62414;53.436;8.828;2022-10-31T13:34:27;101746.34;;;17.03
74060;BMP280;62414;53.436;8.828;2022-10-31T13:37:00;101740.34;;;16.87
74060;BMP280;62414;53.436;8.828;2022-10-31T13:39:34;101752.06;;;16.78
74060;BMP280;62414;53.436;8.828;2022-10-31T13:42:11;101737.97;;;16.58
74060;BMP280;62414;53.436;8.828;2022-10-31T13:44:40;101713.94;;;16.12
74060;BMP280;62414;53.436;8.828;2022-10-31T13:47:22;101706.84;;;15.93
74060;BMP280;62414;53.436;8.828;2022-10-31T13:49:47;101701.31;;;15.84
74060;BMP280;62414;53.436;8.828;2022-10-31T13:52:21;101690.91;;;15.70
74060;BMP280;62414;53.436;8.828;2022-10-31T13:54:49;101680.81;;;15.58
74060;BMP280;62414;53.436;8.828;2022-10-31T13:57:17;101670.06;;;15.41
74060;BMP280;62414;53.436;8.828;2022-10-31T13:59:49;101667.91;;;15.36
74060;BMP280;62414;53.436;8.828;2022-10-31T14:02:17;101668.78;;;15.33
74060;BMP280;62414;53.436;8.828;2022-10-31T14:04:46;101682.13;;;15.31
74060;BMP280;62414;53.436;8.828;2022-10-31T14:07:13;101701.56;;;15.20
74060;BMP280;62414;53.436;8.828;2022-10-31T14:09:48;101692.22;;;15.09
74060;BMP280;62414;53.436;8.828;2022-10-31T14:12:24;101675.72;;;15.12
74060;BMP280;62414;53.436;8.828;2022-10-31T14:14:55;101670.69;;;15.24
74060;BMP280;62414;53.436;8.828;2022-10-31T14:17:23;101679.13;;;15.38
74060;BMP280;62414;53.436;8.828;2022-10-31T14:20:02;101682.38;;;15.46